createdAt,value
2022-12-15T00:01:03.831Z,13.68
2022-12-15T00:05:04.007Z,12.55
2022-12-15T00:09:09.729Z,12.68
2022-12-15T00:13:13.036Z,12.73
2022-12-15T00:17:13.158Z,12.15
2022-12-15T00:21:17.279Z,11.43
2022-12-15T00:29:19.263Z,11.93
2022-12-15T00:33:19.542Z,11.88
2022-12-15T00:37:19.853Z,12.02
2022-12-15T00:41:01.899Z,12.38
2022-12-15T00:44:43.616Z,10.75
2022-12-15T00:48:26.654Z,10.65
2022-12-15T00:52:27.116Z,12.15
2022-12-15T00:56:27.883Z,11.63
2022-12-15T01:00:29.888Z,10.73
2022-12-15T01:04:30.448Z,11.20
2022-12-15T01:08:30.787Z,10.40
2022-12-15T01:12:31.384Z,9.77
2022-12-15T01:16:31.802Z,9.35
2022-12-15T01:20:19.760Z,8.60
2022-12-15T01:24:01.499Z,9.75
2022-12-15T01:27:44.105Z,10.07
2022-12-15T01:31:25.875Z,9.15
2022-12-15T01:35:08.052Z,9.18
2022-12-15T01:38:54.080Z,9.02
2022-12-15T01:42:36.332Z,8.63
2022-12-15T01:46:19.918Z,9.48
2022-12-15T01:50:01.947Z,10.50
2022-12-15T01:54:08.362Z,10.35
2022-12-15T01:57:52.863Z,10.35
2022-12-15T02:01:34.781Z,9.75
2022-12-15T02:05:16.563Z,9.18
2022-12-15T02:08:59.586Z,9.60
2022-12-15T02:13:01.309Z,9.55
2022-12-15T02:17:02.080Z,9.50
2022-12-15T02:21:02.218Z,9.60
2022-12-15T02:25:22.983Z,8.82
2022-12-15T02:29:26.586Z,8.63
2022-12-15T02:33:17.283Z,10.32
2022-12-15T02:37:09.060Z,9.85
2022-12-15T02:40:58.459Z,9.57
2022-12-15T02:44:45.599Z,9.40
2022-12-15T02:48:41.146Z,10.80
2022-12-15T02:52:26.765Z,9.32
2022-12-15T02:56:38.510Z,9.35
2022-12-15T03:00:20.894Z,9.38
2022-12-15T03:04:03.795Z,9.65
2022-12-15T03:07:45.679Z,9.37
2022-12-15T03:11:31.663Z,9.43
2022-12-15T03:15:13.423Z,8.82
2022-12-15T03:18:57.477Z,9.93
2022-12-15T03:22:39.294Z,9.40
2022-12-15T03:26:21.019Z,9.75
2022-12-15T03:30:02.919Z,10.07
2022-12-15T03:33:44.713Z,9.40
2022-12-15T03:37:26.678Z,10.48
2022-12-15T03:41:08.617Z,9.57
2022-12-15T03:44:50.328Z,10.45
2022-12-15T03:48:32.173Z,9.20
2022-12-15T03:52:13.879Z,9.02
2022-12-15T03:55:55.588Z,9.63
2022-12-15T03:59:37.543Z,9.88
2022-12-15T04:03:19.340Z,10.65
2022-12-15T04:07:01.132Z,10.05
2022-12-15T04:10:43.702Z,10.98
2022-12-15T04:14:25.420Z,10.80
2022-12-15T04:18:13.973Z,11.13
2022-12-15T04:21:56.144Z,11.02
2022-12-15T04:25:56.533Z,11.48
2022-12-15T04:29:56.968Z,11.52
2022-12-15T04:33:58.767Z,10.70
2022-12-15T04:37:59.016Z,11.05
2022-12-15T04:41:59.289Z,10.82
2022-12-15T04:45:59.763Z,10.57
2022-12-15T04:50:00.452Z,10.02
2022-12-15T04:54:01.988Z,11.50
2022-12-15T04:58:03.723Z,11.50
2022-12-15T05:02:03.999Z,10.35
2022-12-15T05:06:04.278Z,11.65
2022-12-15T05:10:11.002Z,12.00
2022-12-15T05:14:14.824Z,11.05
2022-12-15T05:18:16.191Z,10.82
2022-12-15T05:22:16.513Z,11.18
2022-12-15T05:26:17.797Z,11.18
2022-12-15T05:30:37.023Z,11.23
2022-12-15T05:34:26.669Z,11.57
2022-12-15T05:38:08.817Z,11.13
2022-12-15T05:41:51.316Z,10.27
2022-12-15T05:45:33.167Z,11.98
2022-12-15T05:49:16.198Z,12.13
2022-12-15T05:52:58.671Z,11.38
2022-12-15T05:56:40.439Z,11.95
2022-12-15T06:00:40.677Z,13.32
2022-12-15T06:04:22.490Z,13.13
2022-12-15T06:08:05.694Z,12.55
2022-12-15T06:11:47.422Z,13.68
2022-12-15T06:15:29.190Z,12.32
2022-12-15T06:19:14.006Z,11.60
2022-12-15T06:22:55.720Z,10.23
2022-12-15T06:26:38.864Z,10.52
2022-12-15T06:30:20.673Z,9.23
2022-12-15T06:34:04.477Z,10.75
2022-12-15T06:37:46.668Z,11.27
2022-12-15T06:41:30.434Z,11.05
2022-12-15T06:45:12.381Z,9.98
2022-12-15T06:48:54.266Z,9.20
2022-12-15T06:52:35.975Z,8.85
2022-12-15T06:56:33.198Z,9.73
2022-12-15T07:00:16.289Z,9.15
2022-12-15T07:04:00.101Z,8.52
2022-12-15T07:07:42.324Z,9.00
2022-12-15T07:11:24.153Z,8.65
2022-12-15T07:15:08.112Z,8.65
2022-12-15T07:18:54.185Z,8.80
2022-12-15T07:22:35.956Z,8.38
2022-12-15T07:26:17.676Z,9.48
2022-12-15T07:30:00.494Z,8.13
2022-12-15T07:33:42.260Z,8.30
2022-12-15T07:37:24.044Z,9.80
2022-12-15T07:41:06.894Z,9.68
2022-12-15T07:44:49.835Z,10.25
2022-12-15T07:48:32.347Z,10.43
2022-12-15T07:52:14.144Z,9.55
2022-12-15T07:56:07.383Z,10.32
2022-12-15T08:00:10.582Z,10.82
2022-12-15T08:03:52.294Z,11.05
2022-12-15T08:07:33.989Z,11.15
2022-12-15T08:11:16.494Z,12.05
2022-12-15T08:14:58.173Z,11.27
2022-12-15T08:18:41.058Z,11.80
2022-12-15T08:22:22.739Z,13.00
2022-12-15T08:26:05.876Z,11.45
2022-12-15T08:29:52.060Z,12.18
2022-12-15T08:33:34.821Z,12.40
2022-12-15T08:37:16.896Z,12.43
2022-12-15T08:41:10.832Z,11.13
2022-12-15T08:44:52.517Z,9.82
2022-12-15T08:48:35.464Z,11.70
2022-12-15T08:52:17.121Z,11.07
2022-12-15T08:56:03.858Z,11.13
2022-12-15T08:59:47.567Z,10.75
2022-12-15T09:07:11.796Z,10.13
2022-12-15T09:10:53.606Z,11.73
2022-12-15T09:14:35.284Z,11.90
2022-12-15T09:18:18.153Z,11.20
2022-12-15T09:22:00.949Z,10.77
2022-12-15T09:25:42.799Z,13.13
2022-12-15T09:29:25.754Z,11.35
2022-12-15T09:33:07.412Z,10.10
2022-12-15T09:36:49.144Z,8.88
2022-12-15T09:40:33.386Z,13.55
2022-12-15T09:44:16.789Z,22.25
2022-12-15T09:48:06.889Z,14.02
2022-12-15T09:51:53.381Z,14.70
2022-12-15T09:55:35.187Z,13.20
2022-12-15T10:00:01.141Z,11.70
2022-12-15T10:04:10.023Z,12.27
2022-12-15T10:07:51.984Z,12.30
2022-12-15T10:11:50.571Z,12.00
2022-12-15T10:15:45.543Z,11.80
2022-12-15T10:19:42.059Z,11.60
2022-12-15T10:23:25.145Z,13.65
2022-12-15T10:27:22.813Z,14.75
2022-12-15T10:31:18.698Z,13.40
2022-12-15T10:35:01.289Z,13.45
2022-12-15T10:38:47.390Z,14.52
2022-12-15T10:42:33.044Z,16.83
2022-12-15T10:46:22.099Z,17.67
2022-12-15T10:50:24.962Z,15.27
2022-12-15T10:54:10.016Z,10.40
2022-12-15T10:57:59.428Z,9.43
2022-12-15T11:01:41.170Z,9.77
2022-12-15T11:05:23.768Z,9.35
2022-12-15T11:09:21.223Z,8.75
2022-12-15T11:13:22.281Z,9.75
2022-12-15T11:17:06.044Z,9.65
2022-12-15T11:21:01.099Z,8.27
2022-12-15T11:24:49.396Z,9.25
2022-12-15T11:28:38.945Z,8.93
2022-12-15T11:32:23.304Z,11.32
2022-12-15T11:36:17.570Z,10.23
2022-12-15T11:40:08.583Z,9.77
2022-12-15T11:44:06.682Z,9.40
2022-12-15T11:48:12.183Z,9.18
2022-12-15T11:51:53.847Z,11.27
2022-12-15T11:55:44.683Z,9.23
2022-12-15T11:59:56.759Z,8.13
2022-12-15T12:03:54.549Z,10.00
2022-12-15T12:07:47.214Z,8.82
2022-12-15T12:11:54.090Z,9.10
2022-12-15T12:15:57.592Z,9.88
2022-12-15T12:19:54.244Z,9.60
2022-12-15T12:24:14.073Z,7.90
2022-12-15T12:27:56.405Z,8.30
2022-12-15T12:32:04.755Z,8.57
2022-12-15T12:35:56.156Z,7.43
2022-12-15T12:39:37.837Z,6.35
2022-12-15T12:43:26.126Z,7.80
2022-12-15T12:47:16.256Z,7.97
2022-12-15T12:51:27.175Z,8.13
2022-12-15T12:55:14.436Z,6.90
2022-12-15T12:58:56.761Z,8.02
2022-12-15T13:02:38.495Z,10.98
2022-12-15T13:06:35.529Z,7.63
2022-12-15T13:10:20.171Z,7.55
2022-12-15T13:14:01.868Z,9.80
2022-12-15T13:17:44.840Z,11.05
2022-12-15T13:21:42.777Z,9.38
2022-12-15T13:25:35.889Z,8.82
2022-12-15T13:29:18.111Z,7.27
2022-12-15T13:33:20.043Z,7.35
2022-12-15T13:37:01.982Z,7.35
2022-12-15T13:40:53.906Z,7.57
2022-12-15T13:44:40.017Z,7.55
2022-12-15T13:48:34.353Z,8.40
2022-12-15T13:57:19.240Z,8.70
2022-12-15T14:01:02.930Z,11.10
2022-12-15T14:04:44.621Z,19.67
2022-12-15T14:08:28.686Z,9.13
2022-12-15T14:12:12.773Z,10.38
2022-12-15T14:15:56.248Z,12.45
2022-12-15T14:27:51.616Z,12.73
2022-12-15T14:31:33.335Z,8.02
2022-12-15T14:35:36.327Z,9.65
2022-12-15T14:39:24.533Z,9.80
2022-12-15T14:43:09.141Z,9.27
2022-12-15T14:46:51.054Z,11.27
2022-12-15T14:50:33.157Z,10.20
2022-12-15T14:54:38.722Z,11.02
2022-12-15T14:58:33.748Z,12.23
2022-12-15T15:02:29.252Z,11.70
2022-12-15T15:03:05.834Z,10.73
2022-12-15T15:06:11.064Z,9.82
2022-12-15T15:09:52.887Z,9.43
2022-12-15T15:13:40.137Z,11.05
2022-12-15T15:17:25.004Z,10.40
2022-12-15T15:21:07.068Z,8.98
2022-12-15T15:24:50.872Z,9.63
2022-12-15T15:32:20.138Z,9.68
2022-12-15T15:36:02.726Z,7.63
2022-12-15T15:39:44.646Z,11.30
2022-12-15T15:43:27.295Z,13.40
2022-12-15T15:47:35.421Z,8.27
2022-12-15T15:51:17.194Z,11.50
2022-12-15T15:54:58.869Z,8.35
2022-12-15T15:58:40.984Z,12.25
2022-12-15T16:02:22.839Z,9.43
2022-12-15T16:06:04.900Z,7.60
2022-12-15T16:09:46.897Z,7.80
2022-12-15T16:13:28.619Z,8.40
2022-12-15T16:17:10.473Z,7.43
2022-12-15T16:20:52.347Z,8.05
2022-12-15T16:24:34.109Z,7.50
2022-12-15T16:28:18.251Z,7.53
2022-12-15T16:32:00.295Z,6.35
2022-12-15T16:35:42.346Z,7.00
2022-12-15T16:39:32.734Z,7.40
2022-12-15T16:43:20.186Z,7.60
2022-12-15T16:47:01.876Z,6.47
2022-12-15T16:50:47.498Z,8.30
2022-12-15T16:54:30.324Z,11.63
2022-12-15T16:58:17.271Z,9.82
2022-12-15T17:01:59.184Z,8.73
2022-12-15T17:05:41.448Z,9.45
2022-12-15T17:09:23.716Z,9.93
2022-12-15T17:13:39.118Z,11.45
2022-12-15T17:17:23.990Z,11.52
2022-12-15T17:21:28.716Z,12.68
2022-12-15T17:26:00.786Z,13.52
2022-12-15T17:29:33.457Z,13.45
2022-12-15T17:33:22.804Z,10.85
2022-12-15T17:37:05.625Z,11.68
2022-12-15T17:40:47.796Z,15.30
2022-12-15T17:44:37.482Z,14.05
2022-12-15T17:48:20.035Z,16.65
2022-12-15T17:52:01.805Z,27.85
2022-12-15T17:55:43.491Z,40.83
2022-12-15T17:59:27.332Z,40.95
2022-12-15T18:06:51.525Z,37.15
2022-12-15T18:10:38.936Z,36.65
2022-12-15T18:14:22.664Z,31.55
2022-12-15T18:18:04.616Z,31.45
2022-12-15T18:21:46.336Z,32.97
2022-12-15T18:25:28.578Z,32.17
2022-12-15T18:29:17.605Z,31.25
2022-12-15T18:32:59.425Z,26.00
2022-12-15T18:36:41.584Z,24.40
2022-12-15T18:40:25.351Z,23.95
2022-12-15T18:47:51.407Z,23.77
2022-12-15T18:51:33.077Z,25.58
2022-12-15T18:55:16.957Z,27.40
2022-12-15T18:58:58.792Z,26.20
2022-12-15T19:02:41.226Z,25.17
2022-12-15T19:06:26.615Z,19.00
2022-12-15T19:10:13.103Z,21.67
2022-12-15T19:13:55.792Z,23.17
2022-12-15T19:17:55.976Z,24.02
2022-12-15T19:21:56.354Z,24.15
2022-12-15T19:25:38.039Z,27.02
2022-12-15T19:29:23.833Z,24.25
2022-12-15T19:33:05.861Z,24.35
2022-12-15T19:36:47.576Z,22.90
2022-12-15T19:40:31.411Z,25.08
2022-12-15T19:48:01.030Z,23.48
2022-12-15T19:51:43.422Z,24.10
2022-12-15T19:55:33.073Z,22.02
2022-12-15T19:59:25.587Z,24.27
2022-12-15T20:03:07.390Z,24.58
2022-12-15T20:06:49.257Z,30.85
2022-12-15T20:10:32.489Z,42.58
2022-12-15T20:14:16.542Z,79.93
2022-12-15T20:17:58.432Z,76.47
2022-12-15T20:21:40.357Z,65.78
2022-12-15T20:25:27.346Z,54.25
2022-12-15T20:29:31.837Z,45.88
2022-12-15T20:33:13.695Z,40.08
2022-12-15T20:36:55.431Z,39.72
2022-12-15T20:40:38.103Z,33.45
2022-12-15T20:44:19.859Z,26.90
2022-12-15T20:48:02.530Z,25.30
2022-12-15T20:51:45.827Z,32.95
2022-12-15T20:55:27.755Z,37.78
2022-12-15T20:59:09.955Z,35.00
2022-12-15T21:02:52.329Z,35.88
2022-12-15T21:06:37.077Z,31.90
2022-12-15T21:10:20.248Z,24.20
2022-12-15T21:14:04.534Z,20.08
2022-12-15T21:17:46.982Z,16.52
2022-12-15T21:21:35.069Z,19.88
2022-12-15T21:25:22.532Z,24.83
2022-12-15T21:29:09.305Z,31.73
2022-12-15T21:32:51.045Z,28.50
2022-12-15T21:36:33.247Z,26.65
2022-12-15T21:40:23.794Z,30.35
2022-12-15T21:44:10.682Z,29.40
2022-12-15T21:48:13.150Z,29.58
2022-12-15T21:51:56.596Z,29.00
2022-12-15T21:55:41.070Z,28.48
2022-12-15T21:59:27.252Z,26.92
2022-12-15T22:03:09.462Z,26.80
2022-12-15T22:06:51.168Z,26.65
2022-12-15T22:10:35.493Z,26.40
2022-12-15T22:18:19.232Z,25.88
2022-12-15T22:22:00.929Z,24.20
2022-12-15T22:25:42.828Z,23.45
2022-12-15T22:29:24.977Z,20.50
2022-12-15T22:33:17.575Z,22.45
2022-12-15T22:37:02.113Z,25.75
2022-12-15T22:40:47.957Z,28.15
2022-12-15T22:44:32.452Z,36.42
2022-12-15T22:48:14.545Z,40.40
2022-12-15T22:51:56.210Z,41.97
2022-12-15T22:55:37.913Z,38.75
2022-12-15T22:59:24.777Z,28.15
2022-12-15T23:03:07.353Z,23.50
2022-12-15T23:06:49.017Z,17.98
2022-12-15T23:10:49.305Z,29.63
2022-12-15T23:14:50.479Z,32.63
2022-12-15T23:18:33.410Z,35.90
2022-12-15T23:22:15.101Z,37.17
2022-12-15T23:25:56.847Z,37.15
2022-12-15T23:29:40.642Z,37.88
2022-12-15T23:37:04.036Z,37.15
2022-12-15T23:40:52.669Z,35.10
2022-12-15T23:44:35.256Z,34.25
2022-12-15T23:48:18.240Z,31.42
2022-12-15T23:51:59.917Z,26.97
2022-12-15T23:55:41.589Z,24.33
2022-12-15T23:59:23.370Z,25.33
